Time;durP1;ratioP1;P1;durP2;ratioP2;P2;SDS_P1;SDS_P2;PMS_P1;PMS_P2;Temp;Humidity;BMP_temperature;BMP_pressure;BME280_temperature;BME280_humidity;BME280_pressure;Samples;Min_cycle;Max_cycle;Signal;HPM_P1;HPM_P2
2023/10/29 00:05:04;;;;;;;10.50;4.90;;;;;;;12.37;70.84;98224.82;234231;215;139024;-57
2023/10/29 00:10:08;;;;;;;10.50;5.10;;;;;;;12.36;71.18;98220.65;234295;215;137542;-57
2023/10/29 00:15:11;;;;;;;10.20;4.60;;;;;;;12.32;71.18;98229.83;234266;215;149791;-57
2023/10/29 00:20:14;;;;;;;7.40;4.40;;;;;;;12.30;71.42;98228.58;234237;215;139440;-58
2023/10/29 00:25:18;;;;;;;8.00;5.00;;;;;;;12.36;71.68;98227.03;234256;215;139193;-56
2023/10/29 00:30:21;;;;;;;10.40;5.20;;;;;;;12.42;71.66;98229.20;234423;215;149473;-55
2023/10/29 00:35:26;;;;;;;8.30;4.30;;;;;;;12.39;71.77;98230.51;234313;215;139276;-55
2023/10/29 00:40:30;;;;;;;6.10;3.80;;;;;;;12.42;72.04;98227.23;234270;215;137834;-55
2023/10/29 00:45:35;;;;;;;5.90;3.70;;;;;;;12.49;72.32;98227.58;234278;215;149289;-52
2023/10/29 00:50:39;;;;;;;7.10;3.60;;;;;;;12.51;72.44;98230.45;233948;215;140038;-53
2023/10/29 00:55:42;;;;;;;8.80;4.10;;;;;;;12.49;72.39;98230.91;234272;215;137007;-56
2023/10/29 01:00:46;;;;;;;6.70;3.40;;;;;;;12.51;72.56;98236.83;234231;215;150077;-53
2023/10/29 01:05:50;;;;;;;6.80;3.60;;;;;;;12.56;72.48;98239.65;234381;215;139316;-54
2023/10/29 01:10:53;;;;;;;6.60;3.70;;;;;;;12.63;72.56;98241.84;234310;215;138262;-54
2023/10/29 01:15:56;;;;;;;7.70;3.60;;;;;;;12.67;72.68;98245.06;234287;215;150123;-53
2023/10/29 01:21:00;;;;;;;6.10;3.40;;;;;;;12.71;72.69;98244.02;234199;216;138906;-56
2023/10/29 01:26:03;;;;;;;7.00;3.70;;;;;;;12.73;72.84;98243.32;234277;215;137033;-53
2023/10/29 01:31:06;;;;;;;6.10;3.20;;;;;;;12.73;73.16;98243.18;234258;215;151080;-52
2023/10/29 01:36:09;;;;;;;8.10;3.90;;;;;;;12.75;73.22;98240.14;234302;216;139083;-54
2023/10/29 01:41:13;;;;;;;12.30;4.00;;;;;;;12.77;73.18;98234.63;234266;215;137499;-55
2023/10/29 01:46:16;;;;;;;8.20;4.50;;;;;;;12.80;73.17;98237.27;234268;215;150070;-54
2023/10/29 01:51:20;;;;;;;6.80;4.20;;;;;;;12.82;73.07;98239.42;234356;214;139425;-52
2023/10/29 01:56:23;;;;;;;6.40;4.30;;;;;;;12.79;72.99;98240.55;234373;215;137737;-53
2023/10/29 02:01:27;;;;;;;10.10;5.00;;;;;;;12.76;73.13;98243.05;234344;214;149078;-53
2023/10/29 02:06:31;;;;;;;11.30;5.00;;;;;;;12.75;73.11;98241.36;234341;215;139972;-53
2023/10/29 02:11:37;;;;;;;4.70;2.60;;;;;;;12.79;72.50;98232.67;234091;215;137939;-55
2023/10/29 02:16:41;;;;;;;5.30;2.50;;;;;;;12.90;71.40;98226.83;234301;215;149650;-51
2023/10/29 02:21:45;;;;;;;5.20;2.70;;;;;;;13.01;70.36;98222.67;234258;215;139548;-55
2023/10/29 02:26:48;;;;;;;8.50;3.20;;;;;;;13.07;69.68;98219.64;234174;215;141383;-53
2023/10/29 02:31:51;;;;;;;5.40;2.80;;;;;;;13.10;69.06;98213.54;234333;215;149446;-54
2023/10/29 02:36:54;;;;;;;4.00;2.10;;;;;;;13.11;68.65;98217.68;234280;215;139561;-50
2023/10/29 02:41:58;;;;;;;5.40;1.80;;;;;;;13.12;68.10;98216.15;234472;215;137130;-54
2023/10/29 02:47:02;;;;;;;3.70;2.50;;;;;;;13.14;67.77;98213.92;234425;215;149306;-55
2023/10/29 02:52:06;;;;;;;4.00;1.90;;;;;;;13.06;67.91;98217.04;234290;215;139561;-53
2023/10/29 02:57:09;;;;;;;5.50;2.30;;;;;;;12.96;68.04;98220.95;234416;215;139476;-53
2023/10/29 03:02:12;;;;;;;3.60;2.20;;;;;;;12.79;68.43;98224.20;234370;215;149650;-54
2023/10/29 03:07:16;;;;;;;5.10;1.90;;;;;;;12.54;68.71;98228.34;234259;215;138980;-53
2023/10/29 03:12:19;;;;;;;6.40;2.20;;;;;;;12.38;69.30;98231.51;234445;215;138642;-53
2023/10/29 03:17:22;;;;;;;5.20;2.10;;;;;;;12.37;69.76;98239.62;234235;215;151007;-57
2023/10/29 03:22:26;;;;;;;5.60;2.30;;;;;;;12.38;69.78;98244.11;234210;215;139507;-55
2023/10/29 03:27:29;;;;;;;3.70;2.00;;;;;;;12.32;69.87;98258.65;234270;215;136930;-54
2023/10/29 03:32:32;;;;;;;5.50;2.30;;;;;;;12.23;69.98;98262.92;234294;215;149211;-52
2023/10/29 03:37:36;;;;;;;6.10;2.40;;;;;;;12.12;70.30;98266.18;234256;215;138970;-53
2023/10/29 03:42:39;;;;;;;6.80;2.70;;;;;;;12.04;70.43;98264.84;234348;215;137547;-54
2023/10/29 03:47:43;;;;;;;5.30;2.60;;;;;;;11.94;70.42;98267.45;234470;215;149308;-52
2023/10/29 03:52:46;;;;;;;6.70;2.50;;;;;;;11.83;70.37;98273.13;234284;215;139383;-57
2023/10/29 03:57:49;;;;;;;7.60;2.90;;;;;;;11.73;70.51;98271.60;234305;215;139266;-55
2023/10/29 04:02:52;;;;;;;4.60;3.10;;;;;;;11.62;70.45;98275.45;234264;215;149440;-56
2023/10/29 04:07:56;;;;;;;5.40;3.00;;;;;;;11.51;70.62;98273.65;234297;215;138962;-55
2023/10/29 04:12:59;;;;;;;6.20;2.90;;;;;;;11.43;70.91;98271.09;234329;215;137918;-56
2023/10/29 04:18:02;;;;;;;6.10;2.60;;;;;;;11.40;71.03;98270.08;234222;215;149692;-54
2023/10/29 04:23:06;;;;;;;6.20;2.40;;;;;;;11.37;70.99;98270.64;234164;215;139221;-55
2023/10/29 04:28:10;;;;;;;5.60;2.80;;;;;;;11.28;71.09;98272.06;234310;215;137584;-53
2023/10/29 04:33:13;;;;;;;5.70;2.30;;;;;;;11.23;71.40;98273.52;234301;215;149982;-52
2023/10/29 04:38:16;;;;;;;7.20;2.30;;;;;;;11.14;71.48;98274.00;234225;215;139398;-51
2023/10/29 04:43:19;;;;;;;3.90;2.10;;;;;;;11.06;71.46;98272.66;234233;215;139199;-49
2023/10/29 04:48:22;;;;;;;5.00;2.40;;;;;;;11.06;71.39;98274.46;234417;215;150091;-52
2023/10/29 04:53:25;;;;;;;5.60;2.60;;;;;;;10.91;71.49;98269.23;234279;215;139886;-55
2023/10/29 04:58:31;;;;;;;6.50;2.80;;;;;;;10.91;71.71;98259.27;234383;215;137734;-52
2023/10/29 05:03:35;;;;;;;4.90;2.30;;;;;;;10.90;71.74;98252.80;234316;215;149987;-55
2023/10/29 05:08:38;;;;;;;5.60;2.50;;;;;;;10.86;71.86;98254.69;234201;215;139304;-55
2023/10/29 05:13:41;;;;;;;7.20;2.60;;;;;;;10.79;71.82;98259.11;234338;215;137813;-53
2023/10/29 05:18:44;;;;;;;4.30;2.30;;;;;;;10.69;71.81;98258.33;233041;215;150564;-55
2023/10/29 05:23:48;;;;;;;6.60;2.50;;;;;;;10.65;72.12;98264.09;234548;215;138555;-50
2023/10/29 05:28:51;;;;;;;9.60;2.50;;;;;;;10.63;72.28;98263.30;234373;215;137785;-52
2023/10/29 05:33:54;;;;;;;7.30;2.50;;;;;;;10.63;72.33;98267.02;234317;215;149893;-52
2023/10/29 05:38:57;;;;;;;5.00;2.50;;;;;;;10.68;72.48;98265.09;234219;215;139205;-53
2023/10/29 05:44:01;;;;;;;5.50;2.50;;;;;;;10.70;72.53;98264.45;234179;215;138120;-51
2023/10/29 05:49:04;;;;;;;5.10;2.20;;;;;;;10.69;72.47;98276.05;234308;215;150036;-54
2023/10/29 05:54:08;;;;;;;4.70;2.50;;;;;;;10.68;72.53;98283.72;234422;215;139524;-54
2023/10/29 05:59:11;;;;;;;5.10;2.70;;;;;;;10.68;72.55;98289.96;234236;215;137723;-54
2023/10/29 06:04:14;;;;;;;4.40;2.20;;;;;;;10.63;72.64;98298.42;234240;215;149259;-53
2023/10/29 06:09:17;;;;;;;6.50;2.90;;;;;;;10.59;72.87;98304.25;234255;215;139499;-54
2023/10/29 06:14:26;;;;;;;7.40;2.70;;;;;;;10.67;73.07;98310.42;234328;215;138216;-53
2023/10/29 06:19:33;;;;;;;6.90;3.40;;;;;;;10.76;73.23;98313.44;234282;216;150215;-52
2023/10/29 06:24:36;;;;;;;7.00;3.70;;;;;;;10.81;73.31;98318.95;234324;215;138851;-51
2023/10/29 06:29:39;;;;;;;9.40;3.80;;;;;;;10.83;73.62;98328.02;234464;214;137175;-52
2023/10/29 06:34:43;;;;;;;8.10;4.20;;;;;;;10.89;73.97;98335.19;234391;215;149748;-53
2023/10/29 06:39:46;;;;;;;13.70;4.30;;;;;;;10.93;73.95;98337.95;234262;215;140129;-51
2023/10/29 06:44:49;;;;;;;6.30;3.70;;;;;;;10.98;74.13;98340.75;234368;215;138563;-55
2023/10/29 06:49:54;;;;;;;6.20;3.90;;;;;;;11.07;74.27;98339.55;234473;215;151577;-55
2023/10/29 06:54:57;;;;;;;6.10;4.50;;;;;;;11.20;74.43;98341.92;234389;215;138851;-52
2023/10/29 07:00:00;;;;;;;8.90;4.00;;;;;;;11.36;74.46;98331.28;234379;215;137317;-56
2023/10/29 07:05:04;;;;;;;8.20;4.30;;;;;;;11.50;74.62;98325.56;234120;215;150097;-54
2023/10/29 07:10:08;;;;;;;7.80;4.30;;;;;;;11.65;74.56;98324.63;234296;215;138690;-53
2023/10/29 07:15:11;;;;;;;8.80;5.30;;;;;;;11.77;74.53;98318.02;233153;215;138308;-52
2023/10/29 07:20:14;;;;;;;7.20;5.50;;;;;;;11.89;74.41;98317.09;234272;215;149874;-53
2023/10/29 07:25:18;;;;;;;9.90;5.20;;;;;;;12.02;74.49;98314.81;234378;215;138988;-55
2023/10/29 07:30:21;;;;;;;13.10;7.20;;;;;;;12.22;74.31;98309.84;234382;215;138123;-53
2023/10/29 07:35:24;;;;;;;12.20;7.80;;;;;;;12.46;73.83;98306.09;234451;214;151117;-50
2023/10/29 07:40:27;;;;;;;14.80;10.90;;;;;;;12.69;73.50;98309.15;234274;215;140751;-52
2023/10/29 07:45:31;;;;;;;13.90;9.20;;;;;;;12.91;73.16;98304.53;234033;215;137412;-53
2023/10/29 07:50:34;;;;;;;13.10;5.10;;;;;;;13.09;72.57;98302.31;234065;215;149518;-52
2023/10/29 07:55:37;;;;;;;8.70;4.90;;;;;;;13.24;71.98;98301.39;234265;216;140550;-49
2023/10/29 08:00:41;;;;;;;10.20;4.60;;;;;;;13.38;71.38;98297.20;234517;214;137160;-52
2023/10/29 08:05:51;;;;;;;7.70;4.10;;;;;;;13.53;70.85;98296.48;234307;215;150904;-54
2023/10/29 08:10:54;;;;;;;9.70;3.90;;;;;;;13.69;70.93;98296.09;234238;215;139564;-51
2023/10/29 08:15:58;;;;;;;6.60;3.30;;;;;;;13.90;70.59;98294.96;234230;215;138523;-53
2023/10/29 08:21:02;;;;;;;8.80;3.20;;;;;;;14.09;69.81;98295.09;234148;216;150573;-56
2023/10/29 08:26:06;;;;;;;7.60;3.40;;;;;;;14.28;69.05;98293.10;234190;215;138778;-55
2023/10/29 08:31:10;;;;;;;7.60;2.60;;;;;;;14.43;68.57;98284.38;234233;215;137740;-55
2023/10/29 08:36:17;;;;;;;7.50;2.40;;;;;;;14.60;67.95;98284.91;234433;214;149344;-52
2023/10/29 08:41:20;;;;;;;4.80;2.30;;;;;;;14.82;66.30;98277.88;234216;215;138963;-53
2023/10/29 08:46:23;;;;;;;7.00;2.70;;;;;;;14.95;65.98;98284.86;234227;215;137134;-56
2023/10/29 08:51:27;;;;;;;5.70;2.10;;;;;;;15.16;65.59;98289.72;234268;215;149666;-56
2023/10/29 08:56:34;;;;;;;3.40;1.80;;;;;;;15.40;64.68;98291.83;234200;215;140055;-51
2023/10/29 09:01:37;;;;;;;4.00;1.70;;;;;;;15.64;64.24;98291.17;234196;215;137749;-52
2023/10/29 09:06:41;;;;;;;4.00;1.60;;;;;;;15.81;63.46;98286.52;234345;215;149997;-49
2023/10/29 09:11:46;;;;;;;3.70;1.30;;;;;;;15.99;63.11;98282.08;234285;215;140911;-54
2023/10/29 09:16:49;;;;;;;5.50;1.50;;;;;;;16.18;61.92;98285.13;234152;215;138873;-55
2023/10/29 09:21:53;;;;;;;2.50;1.00;;;;;;;16.33;61.26;98273.08;234147;215;149750;-53
2023/10/29 09:26:56;;;;;;;2.10;1.40;;;;;;;16.50;60.69;98273.52;234214;215;140846;-53
2023/10/29 09:32:01;;;;;;;3.40;1.50;;;;;;;16.63;60.05;98279.40;234267;215;138788;-52
2023/10/29 09:37:05;;;;;;;2.80;1.40;;;;;;;16.77;59.58;98270.52;234307;215;149152;-53
2023/10/29 09:42:11;;;;;;;2.40;1.40;;;;;;;16.85;58.86;98267.77;234301;215;138621;-54
2023/10/29 09:47:17;;;;;;;3.70;1.40;;;;;;;16.92;59.27;98264.71;234291;215;138207;-54
2023/10/29 09:52:28;;;;;;;4.40;1.50;;;;;;;17.01;59.02;98257.52;234231;215;149473;-55
2023/10/29 09:57:31;;;;;;;3.10;1.40;;;;;;;17.06;58.42;98245.53;234166;215;139508;-56
2023/10/29 10:02:57;;;;;;;3.00;1.40;;;;;;;17.16;59.06;98237.86;234275;215;137911;-53
2023/10/29 10:08:01;;;;;;;4.60;1.40;;;;;;;17.32;58.83;98233.71;234207;215;149924;-53
2023/10/29 10:13:04;;;;;;;2.40;1.30;;;;;;;17.49;58.70;98225.71;234213;215;138912;-53
2023/10/29 10:18:08;;;;;;;2.20;1.20;;;;;;;17.65;58.29;98218.64;234415;215;136784;-56
2023/10/29 10:23:11;;;;;;;3.80;1.40;;;;;;;17.82;57.31;98204.89;234319;215;149180;-56
2023/10/29 10:28:15;;;;;;;3.30;1.30;;;;;;;17.97;55.96;98193.91;234186;215;138978;-51
2023/10/29 10:33:21;;;;;;;3.10;1.40;;;;;;;18.06;55.47;98187.15;234313;215;136855;-54
2023/10/29 10:38:24;;;;;;;89.60;68.30;;;;;;;18.18;54.51;98186.15;234273;215;149967;-57
2023/10/29 10:43:28;;;;;;;13.00;8.70;;;;;;;18.44;54.50;98185.19;234268;215;139669;-54
2023/10/29 10:48:32;;;;;;;3.10;1.80;;;;;;;18.73;54.21;98183.48;234316;215;137957;-55
2023/10/29 10:53:36;;;;;;;5.60;2.30;;;;;;;18.99;54.79;98179.10;233872;215;149491;-57
2023/10/29 10:58:44;;;;;;;1.90;1.00;;;;;;;19.24;53.85;98177.67;234103;215;139951;-54
2023/10/29 11:03:48;;;;;;;4.00;1.40;;;;;;;19.36;52.36;98177.95;234150;215;137418;-54
2023/10/29 11:08:53;;;;;;;152.90;85.20;;;;;;;19.45;51.16;98173.30;234124;215;149976;-55
2023/10/29 11:14:11;;;;;;;7.30;5.00;;;;;;;19.60;51.35;98166.98;234178;215;138892;-57
2023/10/29 11:19:43;;;;;;;5.70;2.00;;;;;;;19.74;51.60;98160.55;234283;215;137713;-57
2023/10/29 11:25:08;;;;;;;2.70;1.30;;;;;;;19.95;50.61;98159.05;234067;215;150760;-57
2023/10/29 11:30:15;;;;;;;9.10;3.60;;;;;;;20.11;50.75;98151.08;234328;215;139390;-48
2023/10/29 11:35:19;;;;;;;5.10;1.80;;;;;;;20.26;50.89;98138.84;234123;215;137673;-44
2023/10/29 11:40:23;;;;;;;4.50;1.80;;;;;;;20.40;50.59;98137.81;234185;215;151117;-60
2023/10/29 11:45:28;;;;;;;110.60;87.30;;;;;;;20.49;48.98;98135.58;234211;215;138896;-58
2023/10/29 11:50:38;;;;;;;9.50;5.60;;;;;;;20.63;48.88;98131.67;234165;215;139605;-58
2023/10/29 11:55:42;;;;;;;5.40;2.70;;;;;;;20.70;48.01;98127.93;234221;215;149224;-58
2023/10/29 12:00:45;;;;;;;5.20;1.80;;;;;;;20.64;48.02;98117.64;234131;215;141700;-56
2023/10/29 12:05:52;;;;;;;4.30;1.60;;;;;;;20.49;48.07;98107.92;234310;214;137295;-57
2023/10/29 12:10:58;;;;;;;4.00;1.40;;;;;;;20.38;49.02;98103.60;234115;215;149529;-58
2023/10/29 12:16:01;;;;;;;7.60;2.00;;;;;;;20.35;49.49;98103.05;234025;215;140344;-56
2023/10/29 12:21:10;;;;;;;4.00;1.30;;;;;;;20.33;49.56;98089.91;234181;215;137545;-57
2023/10/29 12:26:14;;;;;;;32.20;25.50;;;;;;;20.24;48.42;98077.33;234197;215;149165;-44
2023/10/29 12:31:24;;;;;;;4.00;1.50;;;;;;;20.09;48.95;98077.05;234070;215;140724;-55
2023/10/29 12:36:28;;;;;;;2.40;1.10;;;;;;;19.97;48.42;98073.08;234010;215;137308;-55
2023/10/29 12:41:31;;;;;;;101.50;83.30;;;;;;;19.92;48.29;98067.77;234186;215;149264;-57
2023/10/29 12:46:48;;;;;;;92.60;76.20;;;;;;;19.85;49.92;98054.32;234048;215;139159;-57
2023/10/29 12:51:54;;;;;;;6.20;3.00;;;;;;;19.80;49.85;98049.69;234088;215;143980;-57
2023/10/29 12:56:59;;;;;;;3.70;1.50;;;;;;;19.76;49.95;98046.95;234142;215;149913;-58
2023/10/29 13:02:05;;;;;;;4.30;1.20;;;;;;;19.74;48.57;98049.83;234168;215;139183;-57
2023/10/29 13:07:11;;;;;;;4.50;1.60;;;;;;;19.81;47.31;98048.70;234063;214;137923;-59
2023/10/29 13:12:16;;;;;;;90.70;81.10;;;;;;;19.91;47.33;98048.98;234296;215;149265;-60
2023/10/29 13:17:19;;;;;;;10.30;7.80;;;;;;;19.93;46.18;98051.90;234226;215;139092;-60
2023/10/29 13:22:23;;;;;;;3.00;1.50;;;;;;;20.00;46.03;98052.23;234149;215;138298;-61
2023/10/29 13:27:27;;;;;;;2.80;1.10;;;;;;;20.04;46.08;98046.28;232960;215;150337;-60
2023/10/29 13:32:30;;;;;;;3.70;1.00;;;;;;;19.99;45.08;98043.66;233952;215;139113;-61
2023/10/29 13:37:33;;;;;;;2.60;1.10;;;;;;;19.98;45.18;98038.23;233678;215;137785;-60
2023/10/29 13:42:37;;;;;;;4.20;1.40;;;;;;;19.93;45.14;98035.73;234353;215;149396;-60
2023/10/29 13:47:40;;;;;;;3.00;1.30;;;;;;;19.88;45.33;98037.05;234132;215;138925;-60
2023/10/29 13:52:44;;;;;;;29.10;23.30;;;;;;;19.81;44.78;98046.48;234150;215;137808;-59
2023/10/29 13:57:47;;;;;;;6.10;3.00;;;;;;;19.76;45.27;98053.61;234225;215;149768;-59
2023/10/29 14:02:51;;;;;;;5.70;1.50;;;;;;;19.70;45.22;98053.32;233234;215;138866;-59
2023/10/29 14:07:59;;;;;;;14.00;9.10;;;;;;;19.68;45.35;98053.41;234173;215;137612;-59
2023/10/29 14:13:03;;;;;;;6.20;1.80;;;;;;;19.66;45.25;98040.33;234221;215;231973;-57
2023/10/29 14:18:06;;;;;;;7.10;2.00;;;;;;;19.63;45.59;98045.36;234277;215;139922;-59
2023/10/29 14:23:10;;;;;;;4.60;1.60;;;;;;;19.54;45.64;98047.57;234221;215;136824;-57
2023/10/29 14:28:13;;;;;;;4.90;1.40;;;;;;;19.43;45.87;98051.08;234087;215;149296;-58
2023/10/29 14:33:16;;;;;;;4.90;1.40;;;;;;;19.31;46.22;98054.19;233734;215;139471;-58
2023/10/29 14:38:20;;;;;;;4.70;1.50;;;;;;;19.27;46.79;98047.42;234133;215;137947;-58
2023/10/29 14:43:24;;;;;;;3.00;1.50;;;;;;;19.22;46.97;98052.38;233944;215;150448;-57
2023/10/29 14:48:27;;;;;;;4.60;2.00;;;;;;;19.14;47.26;98062.44;234176;215;138789;-57
2023/10/29 14:53:30;;;;;;;2.70;1.50;;;;;;;19.04;47.71;98073.23;234194;214;138999;-58
2023/10/29 14:58:34;;;;;;;6.70;1.80;;;;;;;18.95;47.77;98079.17;234112;215;150931;-58
2023/10/29 15:03:37;;;;;;;5.00;1.50;;;;;;;18.85;47.76;98075.52;234132;215;139811;-58
2023/10/29 15:08:40;;;;;;;4.20;1.50;;;;;;;18.77;48.21;98075.20;234109;215;139195;-58
2023/10/29 15:13:44;;;;;;;5.70;1.70;;;;;;;18.67;48.59;98085.83;234172;216;151726;-58
2023/10/29 15:18:50;;;;;;;4.30;1.80;;;;;;;18.58;48.61;98093.48;234203;215;138989;-57
2023/10/29 15:23:54;;;;;;;6.00;1.80;;;;;;;18.49;48.66;98097.72;234309;215;139704;-57
2023/10/29 15:28:57;;;;;;;11.80;3.00;;;;;;;18.40;49.32;98096.68;234035;215;149404;-57
2023/10/29 15:34:00;;;;;;;4.70;1.40;;;;;;;18.33;48.85;98093.48;234095;215;139607;-54
2023/10/29 15:39:04;;;;;;;40.60;27.70;;;;;;;18.25;49.32;98093.10;234124;214;138467;-57
2023/10/29 15:44:08;;;;;;;4.80;2.40;;;;;;;18.19;49.35;98084.02;234036;215;149781;-54
2023/10/29 15:49:11;;;;;;;5.30;1.90;;;;;;;18.13;49.64;98087.94;234176;215;138957;-57
2023/10/29 15:54:14;;;;;;;4.10;1.70;;;;;;;18.04;49.63;98096.48;234298;215;138391;-58
2023/10/29 15:59:19;;;;;;;8.40;1.90;;;;;;;17.94;49.45;98101.13;234158;215;149194;-58
2023/10/29 16:04:23;;;;;;;4.30;1.90;;;;;;;17.84;49.52;98110.13;234123;215;140238;-58
2023/10/29 16:09:26;;;;;;;5.30;1.70;;;;;;;17.76;49.67;98117.42;234212;214;137210;-57
2023/10/29 16:14:29;;;;;;;4.40;1.90;;;;;;;17.69;49.79;98119.77;234146;216;149160;-57
2023/10/29 16:19:32;;;;;;;10.90;7.70;;;;;;;17.64;50.06;98126.59;234123;215;139306;-56
2023/10/29 16:24:35;;;;;;;6.20;2.30;;;;;;;17.60;50.17;98132.85;234186;215;138034;-58
2023/10/29 16:29:38;;;;;;;6.30;2.30;;;;;;;17.51;50.56;98137.39;233896;214;150238;-58
2023/10/29 16:34:42;;;;;;;5.40;2.10;;;;;;;17.37;51.00;98133.36;233601;215;140222;-58
2023/10/29 16:39:45;;;;;;;6.80;2.20;;;;;;;17.27;50.88;98144.06;234006;215;137075;-58
2023/10/29 16:44:49;;;;;;;8.40;2.60;;;;;;;17.22;51.13;98151.27;234146;215;149451;-56
2023/10/29 16:49:52;;;;;;;8.00;2.60;;;;;;;17.14;51.70;98156.05;234096;215;140395;-55
2023/10/29 16:54:56;;;;;;;5.30;2.20;;;;;;;17.06;51.83;98168.27;234189;215;138849;-55
2023/10/29 16:59:59;;;;;;;4.90;2.70;;;;;;;17.00;52.19;98174.10;234287;215;149356;-55
2023/10/29 17:05:03;;;;;;;6.00;3.50;;;;;;;16.93;52.68;98177.67;234171;215;140886;-58
2023/10/29 17:10:08;;;;;;;156.20;105.20;;;;;;;16.92;52.49;98182.80;234148;215;140425;-58
2023/10/29 17:15:14;;;;;;;18.10;11.30;;;;;;;16.91;53.50;98189.33;234092;215;149147;-56
2023/10/29 17:20:18;;;;;;;7.40;3.00;;;;;;;16.84;52.94;98197.84;234093;215;139777;-57
2023/10/29 17:25:21;;;;;;;8.10;2.60;;;;;;;16.71;53.19;98198.52;234230;215;138102;-55
2023/10/29 17:30:24;;;;;;;5.10;2.40;;;;;;;16.59;53.19;98202.93;234306;215;149705;-55
2023/10/29 17:35:30;;;;;;;6.20;2.50;;;;;;;16.49;53.24;98206.85;234162;215;140212;-55
2023/10/29 17:40:35;;;;;;;5.30;2.40;;;;;;;16.42;53.18;98204.10;233863;215;138851;-56
2023/10/29 17:45:38;;;;;;;7.30;2.40;;;;;;;16.44;53.03;98196.60;234133;215;149093;-58
2023/10/29 17:50:42;;;;;;;5.40;2.40;;;;;;;16.42;53.29;98187.65;234158;215;139319;-56
2023/10/29 17:55:53;;;;;;;8.70;3.00;;;;;;;16.28;54.79;98189.16;234235;215;136918;-58
2023/10/29 18:00:56;;;;;;;7.70;3.30;;;;;;;16.03;55.58;98197.10;233895;215;150452;-57
2023/10/29 18:06:16;;;;;;;12.00;3.20;;;;;;;15.69;56.35;98202.27;234302;214;140399;-57
2023/10/29 18:11:24;;;;;;;9.00;3.30;;;;;;;15.49;57.25;98196.90;234141;215;139261;-59
2023/10/29 18:16:27;;;;;;;7.90;3.20;;;;;;;15.36;58.09;98194.02;234096;215;149471;-58
2023/10/29 18:21:31;;;;;;;166.20;118.50;;;;;;;15.24;58.88;98193.89;234191;214;138964;-59
2023/10/29 18:26:36;;;;;;;13.50;6.10;;;;;;;15.25;59.16;98187.58;234172;215;138196;-57
2023/10/29 18:31:39;;;;;;;11.00;3.90;;;;;;;15.04;59.25;98177.98;234225;215;149839;-58
2023/10/29 18:36:42;;;;;;;9.50;3.50;;;;;;;14.90;59.73;98164.77;233998;216;138937;-57
2023/10/29 18:41:45;;;;;;;10.80;4.40;;;;;;;14.81;59.98;98167.23;234234;215;137908;-57
2023/10/29 18:46:49;;;;;;;6.80;3.50;;;;;;;14.66;60.42;98180.27;234030;215;150416;-58
2023/10/29 18:51:52;;;;;;;10.60;4.20;;;;;;;14.75;59.80;98188.70;234175;215;141158;-58
2023/10/29 18:56:55;;;;;;;10.20;4.00;;;;;;;14.82;60.12;98177.09;234157;215;137963;-58
2023/10/29 19:01:58;;;;;;;8.80;4.20;;;;;;;14.74;60.54;98166.31;233482;215;149369;-58
2023/10/29 19:07:02;;;;;;;9.80;4.10;;;;;;;14.56;61.16;98166.88;234109;215;139126;-58
2023/10/29 19:12:06;;;;;;;8.70;4.20;;;;;;;14.45;61.74;98166.50;233748;215;159614;-58
2023/10/29 19:17:10;;;;;;;9.10;4.10;;;;;;;14.36;62.20;98169.40;234118;215;149291;-57
2023/10/29 19:22:13;;;;;;;11.40;3.90;;;;;;;14.27;62.61;98163.27;234107;215;139629;-56
2023/10/29 19:27:17;;;;;;;8.10;4.20;;;;;;;14.17;62.98;98160.42;234040;215;138661;-56
2023/10/29 19:32:20;;;;;;;14.30;4.40;;;;;;;14.08;63.34;98150.39;233982;215;149288;-57
2023/10/29 19:37:23;;;;;;;15.40;4.40;;;;;;;14.02;63.73;98142.40;234217;214;139801;-56
2023/10/29 19:42:26;;;;;;;11.40;4.40;;;;;;;13.96;63.92;98140.61;234301;215;140136;-59
2023/10/29 19:47:31;;;;;;;10.40;4.50;;;;;;;13.90;63.88;98149.89;233543;215;149574;-61
2023/10/29 19:52:34;;;;;;;9.60;4.80;;;;;;;13.85;64.11;98150.65;234059;215;138925;-59
2023/10/29 19:57:38;;;;;;;11.60;4.90;;;;;;;13.84;64.18;98153.78;234150;215;137259;-60
2023/10/29 20:02:41;;;;;;;10.40;4.30;;;;;;;13.81;64.29;98153.75;234175;215;149748;-59
2023/10/29 20:07:44;;;;;;;11.20;4.90;;;;;;;13.76;64.29;98152.69;234177;215;139693;-58
2023/10/29 20:12:48;;;;;;;8.40;4.60;;;;;;;13.64;64.52;98145.94;234250;215;137545;-60
2023/10/29 20:17:54;;;;;;;15.10;5.40;;;;;;;13.49;64.88;98152.48;234150;215;150242;-61
2023/10/29 20:22:58;;;;;;;8.30;4.50;;;;;;;13.30;65.43;98160.20;234154;215;139165;-61
2023/10/29 20:28:01;;;;;;;8.10;3.90;;;;;;;13.20;65.88;98167.38;234256;215;137336;-59
2023/10/29 20:33:05;;;;;;;7.70;3.90;;;;;;;13.17;66.09;98174.61;234190;215;149136;-60
2023/10/29 20:38:08;;;;;;;9.00;4.10;;;;;;;13.15;66.23;98177.08;234126;215;139813;-58
2023/10/29 20:43:11;;;;;;;8.70;4.00;;;;;;;13.17;66.36;98177.30;234176;215;136838;-58
2023/10/29 20:48:16;;;;;;;7.10;3.30;;;;;;;13.25;66.53;98173.10;234378;215;149215;-59
2023/10/29 20:53:20;;;;;;;7.80;3.90;;;;;;;13.34;66.44;98163.35;234118;215;139505;-61
2023/10/29 20:58:23;;;;;;;8.10;4.00;;;;;;;13.48;66.43;98151.96;234183;215;137787;-59
2023/10/29 21:03:26;;;;;;;8.50;4.20;;;;;;;13.56;66.17;98151.29;234183;215;151385;-61
2023/10/29 21:08:30;;;;;;;14.50;4.50;;;;;;;13.58;66.14;98151.96;234038;215;140365;-59
2023/10/29 21:13:33;;;;;;;9.20;4.60;;;;;;;13.58;65.89;98149.88;233782;215;137936;-60
2023/10/29 21:18:36;;;;;;;11.40;5.60;;;;;;;13.54;65.61;98133.86;234307;215;149257;-60
2023/10/29 21:23:40;;;;;;;11.00;5.20;;;;;;;13.46;65.57;98127.80;234175;215;139420;-60
2023/10/29 21:28:44;;;;;;;11.00;5.70;;;;;;;13.34;65.67;98124.17;234261;215;137789;-59
2023/10/29 21:33:48;;;;;;;12.90;5.60;;;;;;;13.29;65.91;98126.56;234163;215;150184;-59
2023/10/29 21:38:51;;;;;;;9.00;5.40;;;;;;;13.24;65.96;98124.91;234168;215;141030;-59
2023/10/29 21:43:54;;;;;;;11.50;5.30;;;;;;;13.09;66.42;98131.48;234203;215;138731;-59
2023/10/29 21:48:58;;;;;;;12.40;5.70;;;;;;;13.15;66.69;98130.98;233488;215;149542;-56
2023/10/29 21:54:01;;;;;;;12.60;5.60;;;;;;;13.18;66.78;98136.23;234319;215;140179;-59
2023/10/29 21:59:05;;;;;;;8.60;5.00;;;;;;;13.19;66.80;98135.25;234263;214;137152;-61
2023/10/29 22:04:08;;;;;;;11.60;5.00;;;;;;;13.13;66.85;98148.05;234307;215;150104;-58
2023/10/29 22:09:12;;;;;;;10.50;5.20;;;;;;;13.04;67.32;98152.60;234145;215;139020;-58
2023/10/29 22:14:15;;;;;;;13.60;5.30;;;;;;;12.97;67.45;98149.65;234122;215;138202;-58
2023/10/29 22:19:18;;;;;;;11.30;5.30;;;;;;;12.87;67.76;98149.42;234171;215;149832;-59
2023/10/29 22:24:22;;;;;;;11.80;5.00;;;;;;;12.80;68.12;98152.55;234255;215;138849;-60
2023/10/29 22:29:25;;;;;;;8.20;4.70;;;;;;;12.72;68.24;98157.98;234162;215;138236;-57
2023/10/29 22:34:28;;;;;;;10.30;4.90;;;;;;;12.61;68.59;98155.56;234171;215;149255;-60
2023/10/29 22:39:33;;;;;;;12.00;5.10;;;;;;;12.58;68.84;98147.30;233979;215;139501;-60
2023/10/29 22:44:36;;;;;;;11.40;4.60;;;;;;;12.58;68.96;98143.73;234203;215;138570;-60
2023/10/29 22:49:39;;;;;;;11.50;5.30;;;;;;;12.57;68.97;98139.34;234134;215;149771;-57
2023/10/29 22:54:42;;;;;;;11.40;5.00;;;;;;;12.59;69.02;98136.53;234325;215;146211;-58
2023/10/29 22:59:45;;;;;;;9.70;5.30;;;;;;;12.56;69.08;98141.23;234199;215;138226;-59
2023/10/29 23:04:49;;;;;;;13.60;5.50;;;;;;;12.52;69.11;98146.38;234256;215;149050;-59
2023/10/29 23:09:52;;;;;;;10.00;5.30;;;;;;;12.47;69.22;98148.21;234159;215;140143;-60
2023/10/29 23:14:55;;;;;;;13.20;5.20;;;;;;;12.41;69.32;98153.00;234310;215;139199;-58
2023/10/29 23:19:58;;;;;;;11.90;4.90;;;;;;;12.32;69.42;98154.96;234199;215;150471;-59
2023/10/29 23:25:02;;;;;;;8.60;5.70;;;;;;;12.26;69.63;98153.16;234261;215;140168;-58
2023/10/29 23:30:06;;;;;;;11.20;5.40;;;;;;;12.24;69.72;98163.62;234376;215;138563;-60